createdAt,value
2019-04-11T00:01:32.549Z,5.05
2019-04-11T00:06:27.612Z,4.93
2019-04-11T00:11:31.949Z,4.83
2019-04-11T00:16:37.139Z,4.88
2019-04-11T00:21:41.605Z,4.81
2019-04-11T00:26:46.588Z,4.64
2019-04-11T00:31:50.788Z,4.57
2019-04-11T00:36:54.970Z,4.49
2019-04-11T00:41:59.175Z,4.47
2019-04-11T00:47:03.412Z,4.38
2019-04-11T00:52:08.635Z,4.31
2019-04-11T00:57:12.917Z,4.16
2019-04-11T01:02:17.735Z,4.09
2019-04-11T01:07:22.771Z,4.11
2019-04-11T01:12:27.111Z,4.16
2019-04-11T01:17:31.591Z,4.12
2019-04-11T01:22:35.813Z,4.05
2019-04-11T01:27:41.151Z,4.01
2019-04-11T01:32:46.467Z,3.83
2019-04-11T01:37:50.786Z,3.76
2019-04-11T01:42:55.528Z,3.68
2019-04-11T01:48:15.364Z,3.69
2019-04-11T01:53:19.630Z,3.70
2019-04-11T01:58:24.621Z,3.68
2019-04-11T02:03:39.315Z,3.68
2019-04-11T02:08:43.860Z,3.66
2019-04-11T02:13:48.259Z,3.71
2019-04-11T02:18:52.480Z,3.67
2019-04-11T02:24:02.304Z,3.72
2019-04-11T02:29:06.891Z,3.60
2019-04-11T02:34:11.850Z,3.52
2019-04-11T02:39:19.606Z,3.47
2019-04-11T02:44:49.642Z,3.54
2019-04-11T02:49:30.946Z,3.58
2019-04-11T02:54:36.615Z,3.53
2019-04-11T02:59:44.459Z,3.47
2019-04-11T03:04:48.175Z,3.34
2019-04-11T03:09:53.549Z,3.26
2019-04-11T03:15:16.121Z,3.24
2019-04-11T03:20:15.458Z,3.09
2019-04-11T03:25:11.705Z,2.99
2019-04-11T03:30:24.937Z,3.01
2019-04-11T03:40:48.132Z,2.86
2019-04-11T03:45:56.286Z,2.79
2019-04-11T03:50:42.467Z,2.77
2019-04-11T03:55:47.499Z,2.63
2019-04-11T04:00:53.618Z,2.66
2019-04-11T04:05:59.945Z,2.47
2019-04-11T04:11:19.021Z,2.43
2019-04-11T04:16:40.347Z,2.40
2019-04-11T04:21:47.099Z,2.35
2019-04-11T04:26:52.609Z,2.24
2019-04-11T04:31:59.365Z,2.19
2019-04-11T04:37:05.730Z,2.11
2019-04-11T04:42:21.168Z,2.10
2019-04-11T04:47:23.676Z,2.05
2019-04-11T04:52:22.297Z,2.11
2019-04-11T04:57:26.851Z,2.15
2019-04-11T05:02:32.764Z,2.19
2019-04-11T05:07:40.414Z,2.12
2019-04-11T05:12:43.981Z,2.06
2019-04-11T05:17:49.168Z,2.18
2019-04-11T05:22:53.651Z,2.24
2019-04-11T05:27:58.177Z,2.27
2019-04-11T05:33:02.413Z,2.36
2019-04-11T05:38:06.613Z,2.36
2019-04-11T05:43:11.460Z,2.48
2019-04-11T05:48:34.836Z,2.68
2019-04-11T05:53:39.032Z,2.77
2019-04-11T05:58:45.724Z,2.84
2019-04-11T06:03:50.938Z,2.98
2019-04-11T06:09:00.612Z,3.21
2019-04-11T06:14:15.456Z,3.53
2019-04-11T06:19:54.039Z,3.48
2019-04-11T06:25:19.290Z,4.11
2019-04-11T06:30:42.355Z,4.38
2019-04-11T06:36:21.051Z,4.05
2019-04-11T06:41:46.989Z,4.47
2019-04-11T06:47:16.696Z,4.84
2019-04-11T06:52:21.032Z,4.93
2019-04-11T06:57:27.074Z,4.91
2019-04-11T07:02:32.215Z,5.22
2019-04-11T07:07:37.675Z,5.44
2019-04-11T07:12:47.158Z,5.50
2019-04-11T07:18:09.856Z,5.78
2019-04-11T07:23:32.918Z,5.96
2019-04-11T07:28:54.945Z,5.87
2019-04-11T07:34:31.451Z,5.96
2019-04-11T07:39:56.219Z,6.29
2019-04-11T07:45:04.232Z,6.40
2019-04-11T07:50:10.015Z,6.20
2019-04-11T07:55:14.305Z,6.05
2019-04-11T08:00:44.250Z,6.40
2019-04-11T08:06:17.437Z,6.47
2019-04-11T08:11:36.027Z,6.67
2019-04-11T08:17:28.187Z,6.69
2019-04-11T08:22:33.079Z,6.47
2019-04-11T08:27:55.949Z,6.26
2019-04-11T08:32:55.269Z,6.59
2019-04-11T08:38:02.798Z,7.35
2019-04-11T08:43:09.281Z,7.58
2019-04-11T08:48:13.521Z,8.28
2019-04-11T08:53:35.091Z,8.62
2019-04-11T08:58:57.278Z,8.66
2019-04-11T09:04:32.642Z,8.76
2019-04-11T09:10:04.678Z,8.14
2019-04-11T09:15:28.695Z,7.51
2019-04-11T09:20:55.943Z,7.94
2019-04-11T09:26:20.207Z,8.62
2019-04-11T09:31:42.217Z,8.59
2019-04-11T09:37:05.703Z,7.96
2019-04-11T09:42:28.855Z,7.96
2019-04-11T09:47:51.922Z,7.74
2019-04-11T09:52:56.419Z,8.04
2019-04-11T09:58:01.368Z,7.94
2019-04-11T10:03:25.608Z,7.80
2019-04-11T10:08:49.245Z,8.16
2019-04-11T10:14:09.139Z,8.37
2019-04-11T10:19:31.736Z,8.28
2019-04-11T10:24:55.023Z,8.19
2019-04-11T10:30:17.397Z,8.26
2019-04-11T10:35:40.681Z,8.33
2019-04-11T10:41:13.049Z,8.55
2019-04-11T10:46:36.213Z,8.25
2019-04-11T10:51:50.018Z,8.05
2019-04-11T10:57:16.281Z,8.00
2019-04-11T11:02:37.740Z,8.67
2019-04-11T11:07:44.605Z,9.06
2019-04-11T11:13:18.020Z,9.86
2019-04-11T11:19:15.586Z,9.85
2019-04-11T11:24:09.281Z,9.09
2019-04-11T11:29:45.706Z,8.37
2019-04-11T11:34:57.223Z,7.94
2019-04-11T11:40:38.297Z,7.96
2019-04-11T11:46:01.146Z,8.09
2019-04-11T11:51:10.906Z,7.85
2019-04-11T11:56:15.901Z,7.51
2019-04-11T12:01:20.176Z,7.39
2019-04-11T12:06:25.192Z,7.70
2019-04-11T12:11:30.342Z,7.69
2019-04-11T12:17:03.292Z,7.66
2019-04-11T12:22:06.219Z,7.56
2019-04-11T12:27:29.448Z,7.90
2019-04-11T12:32:34.747Z,8.73
2019-04-11T12:37:43.855Z,8.92
2019-04-11T12:42:48.020Z,9.26
2019-04-11T12:47:55.347Z,9.24
2019-04-11T12:53:10.349Z,9.82
2019-04-11T12:58:33.522Z,10.32
2019-04-11T13:03:55.721Z,10.55
2019-04-11T13:09:16.990Z,9.68
2019-04-11T13:14:38.862Z,9.24
2019-04-11T13:20:11.327Z,9.19
2019-04-11T13:25:33.691Z,8.66
2019-04-11T13:30:57.707Z,8.64
2019-04-11T13:36:23.643Z,8.45
2019-04-11T13:41:59.026Z,8.29
2019-04-11T13:47:11.225Z,7.96
2019-04-11T13:52:34.374Z,7.80
2019-04-11T13:57:57.569Z,7.77
2019-04-11T14:03:18.868Z,7.71
2019-04-11T14:08:27.379Z,8.32
2019-04-11T14:13:38.976Z,11.40
2019-04-11T14:19:07.044Z,12.28
2019-04-11T14:24:24.262Z,10.60
2019-04-11T14:29:59.538Z,9.24
2019-04-11T14:35:22.757Z,8.11
2019-04-11T14:40:33.534Z,7.55
2019-04-11T14:45:55.738Z,7.12
2019-04-11T14:51:15.989Z,7.02
2019-04-11T14:56:21.804Z,7.11
2019-04-11T15:01:27.923Z,6.84
2019-04-11T15:06:34.535Z,6.82
2019-04-11T15:11:53.014Z,6.96
2019-04-11T15:17:10.682Z,7.09
2019-04-11T15:22:24.339Z,7.30
2019-04-11T15:28:07.976Z,7.16
2019-04-11T15:33:30.903Z,6.86
2019-04-11T15:38:47.877Z,6.91
2019-04-11T15:44:11.715Z,6.78
2019-04-11T15:49:33.975Z,6.85
2019-04-11T15:54:57.141Z,6.94
2019-04-11T16:00:29.457Z,6.81
2019-04-11T16:05:52.614Z,6.67
2019-04-11T16:11:14.515Z,6.63
2019-04-11T16:16:20.350Z,6.49
2019-04-11T16:21:32.836Z,6.63
2019-04-11T16:26:50.396Z,6.66
2019-04-11T16:31:55.836Z,6.64
2019-04-11T16:37:02.867Z,6.54
2019-04-11T16:42:10.086Z,6.54
2019-04-11T16:47:31.535Z,6.42
2019-04-11T16:52:38.582Z,6.17
2019-04-11T16:57:44.259Z,6.16
2019-04-11T17:02:49.246Z,6.10
2019-04-11T17:08:15.161Z,5.91
2019-04-11T17:13:19.394Z,5.92
2019-04-11T17:18:23.635Z,5.71
2019-04-11T17:23:27.863Z,5.62
2019-04-11T17:28:32.182Z,5.57
2019-04-11T17:33:36.375Z,5.60
2019-04-11T17:38:40.605Z,5.52
2019-04-11T17:43:47.040Z,5.40
2019-04-11T17:48:50.738Z,5.29
2019-04-11T17:53:55.654Z,5.29
2019-04-11T17:59:00.158Z,5.23
2019-04-11T18:04:04.792Z,5.16
2019-04-11T18:09:12.086Z,5.11
2019-04-11T18:14:16.308Z,5.16
2019-04-11T18:19:20.585Z,5.13
2019-04-11T18:24:24.839Z,5.06
2019-04-11T18:29:29.146Z,5.09
2019-04-11T18:34:34.384Z,5.09
2019-04-11T18:39:38.897Z,5.06
2019-04-11T18:44:43.159Z,5.18
2019-04-11T18:49:47.397Z,5.05
2019-04-11T18:54:51.690Z,5.05
2019-04-11T18:59:55.977Z,5.00
2019-04-11T19:05:02.101Z,4.99
2019-04-11T19:10:07.894Z,5.01
2019-04-11T19:15:13.801Z,4.99
2019-04-11T19:20:19.797Z,4.90
2019-04-11T19:25:24.658Z,4.87
2019-04-11T19:30:29.114Z,4.87
2019-04-11T19:35:33.978Z,4.84
2019-04-11T19:40:38.627Z,4.73
2019-04-11T19:45:43.371Z,4.63
2019-04-11T19:50:47.846Z,4.65
2019-04-11T19:56:11.037Z,4.55
2019-04-11T20:01:15.374Z,4.58
2019-04-11T20:06:19.594Z,4.61
2019-04-11T20:11:23.841Z,4.62
2019-04-11T20:16:28.051Z,4.62
2019-04-11T20:21:32.272Z,4.65
2019-04-11T20:26:36.499Z,4.63
2019-04-11T20:31:40.848Z,4.59
2019-04-11T20:36:45.115Z,4.59
2019-04-11T20:41:53.242Z,4.59
2019-04-11T20:46:55.384Z,4.60
2019-04-11T20:51:59.597Z,4.36
2019-04-11T20:57:03.817Z,4.47
2019-04-11T21:02:08.106Z,4.49
2019-04-11T21:07:12.356Z,4.49
2019-04-11T21:12:18.189Z,4.39
2019-04-11T21:17:22.398Z,4.36
2019-04-11T21:22:26.610Z,4.34
2019-04-11T21:27:30.836Z,4.43
2019-04-11T21:32:35.036Z,4.41
2019-04-11T21:37:39.243Z,4.33
2019-04-11T21:42:43.441Z,4.34
2019-04-11T21:47:47.635Z,4.35
2019-04-11T21:52:51.854Z,4.27
2019-04-11T21:57:56.086Z,4.17
2019-04-11T22:03:00.279Z,4.11
2019-04-11T22:08:04.469Z,4.14
2019-04-11T22:13:10.093Z,4.16
2019-04-11T22:18:16.724Z,4.12
2019-04-11T22:23:20.606Z,4.07
2019-04-11T22:28:25.150Z,4.01
2019-04-11T22:33:42.708Z,4.10
2019-04-11T22:38:46.906Z,4.13
2019-04-11T22:43:51.109Z,4.07
2019-04-11T22:48:55.294Z,4.02
2019-04-11T22:54:00.575Z,4.06
2019-04-11T22:59:05.050Z,4.08
2019-04-11T23:04:09.251Z,3.99
2019-04-11T23:09:13.489Z,4.00
2019-04-11T23:14:17.686Z,3.93
2019-04-11T23:19:21.899Z,3.90
2019-04-11T23:24:26.075Z,3.85
2019-04-11T23:29:30.273Z,3.79
2019-04-11T23:34:34.489Z,3.87
2019-04-11T23:39:38.668Z,3.89
2019-04-11T23:44:42.881Z,3.81
2019-04-11T23:49:47.093Z,3.87
2019-04-11T23:54:51.319Z,3.79
2019-04-11T23:59:55.498Z,3.76
